Portada
METAR-TAF:

METAR-TAF

Aeropuertos :

Aeropuerto de Granada

Granada, España

latitud: 37-11N, longitud: 003-47W, altitud: 567 m

Observación

El informe se hizo hace 44 minutos, a las 01:30 UTC
Viento 2 kt con dirección variable
Temperatura 16°C
Humedad 72%
Presión 1017 hPa
Visibilidad 10 km o más
Escasas nubes a una altura de 11000 ft

METAR: LEGR 190130Z AUTO VRB02KT 9999 FEW110 16/11 Q1017

Hora: 04:14 (02:14 UTC)

Pronóstico

El informe se hizo hace 3 horas y 14 minutos, a las 23:00 UTC
Pronóstico válido del 19 a las 00 UTC al 19 a las 24 UTC
Viento 7 kt del oeste
Visibilidad 10 km o más
Escasas nubes a una altura de 5000 ft
Probabilidad 30% :
Temporalmente
del 19 a las 01 UTC al 19 a las 06 UTC
lluvia

TAF: LEGR 182300Z 1900/1924 26007KT 9999 FEW050 TX27/1915Z TN14/1905Z PROB30 TEMPO 1901/1906 RA

Observaciones y pronósticos meteorológicos de más de 4000 aeropuertos (mensajes METAR y TAF).

Los puntos amarillos y rojos representan las estaciones disponibles.

Ponga el ratón en el punto deseado para ver el nombre de la estación.

Haga clic para ver las observaciones y los pronósticos meteorológicos.

Para cambiar el mapa : haga clic en los botones verdes con una cruz de color negro para hacer un zoom, en el botón verde con un guión para alejar o en las flechas verdes para mapas adyacentes.


METAR-TAF: